岩国飛行場の過去48時間の天気

岩国飛行場 (Iwakuni)

現在時刻: 1/22 09:46 JST (1/22 00:46 UTC) 以下の時間は現地時間です。

過去48時間のMETAR気象情報
時間 風向 風速(m/s) 視程 気温(℃) 湿度(%) 気圧(hPa) 天気現象
22 08:55 西北西 2 10km以上 6.1 68 1028.2
22 07:55 西北西 3 10km以上 4.4 73 1028.3
22 06:55 北西 4 10km以上 4.4 73 1028.4
22 05:55 北西 3 10km以上 3.9 76 1027.5
22 04:55 北西 3 10km以上 3.9 76 1027.4
22 03:55 北西 3 10km以上 4.4 73 1027.6
22 02:55 西北西 4 10km以上 4.4 73 1028.3
22 01:55 北西 2 10km以上 4.4 73 1028.2
22 00:55 北西 2 10km以上 4.4 73 1028.3
21 23:55 西北西 4 10km以上 4.4 73 1028.2
21 22:55 西北西 3 10km以上 5 73 1028.6
21 21:55 北西 5 10km以上 6.7 65 1028.9
21 20:55 北西 3 10km以上 6.7 62 1028.7
21 19:55 北西 3 10km以上 7.2 63 1028.6
21 18:55 西北西 3 10km以上 8.3 58 1027.7
21 17:55 4 10km以上 9.4 52 1027
21 16:55 東北東 2 10km以上 11.1 39 1026.8
21 15:55 東北東 4 10km以上 11.7 39 1026.5
21 14:55 東北東 5 10km以上 12.2 38 1026
21 13:55 4 10km以上 12.2 40 1026.1
21 12:55 東北東 4 10km以上 11.7 41 1026.7
21 11:55 3 10km以上 11.1 41 1027.7
21 10:55 北東 4 10km以上 10.6 41 1028.5
21 09:55 4 10km以上 10.6 39 1028
21 08:55 北西 3 10km以上 7.8 53 1027.3
21 07:55 西北西 4 10km以上 4.4 70 1026.3
21 06:55 西北西 3 10km以上 4.4 70 1025.1
21 05:55 北西 3 10km以上 5 67 1023.7
21 04:55 北西 3 10km以上 5 70 1022.8
21 03:55 西 3 10km以上 5.6 67 1022.5
21 02:55 西北西 2 10km以上 6.1 68 1022.7
21 01:55 西北西 2 10km以上 5.6 70 1022.6
21 01:06 北西 2 10km以上 5 70 1022.5
20 22:55 北西 2 10km以上 6.1 62 1021.9
20 21:55 西北西 2 10km以上 6.7 60 1021.4
20 20:55 西南西 3 10km以上 6.7 60 1021.4
20 19:55 西 3 10km以上 8.3 53 1020.9
20 18:55 西 3 10km以上 8.9 51 1020.4
20 17:55 西 5 10km以上 9.4 50 1019.6
20 16:55 西 5 10km以上 10 44 1019
20 15:55 西 4 10km以上 11.1 41 1018.5
20 14:55 西北西 4 10km以上 10.6 41 1018
20 13:55 西北西 4 10km以上 11.1 43 1018.1
20 12:55 西 5 10km以上 11.1 41 1018.7
20 11:55 西南西 4 10km以上 11.7 41 1019.4
20 10:55 西南西 6 10km以上 11.7 43 1020.2
20 09:55 西 6 10km以上 10 46 1020.4
RJOI 212355Z 30004KT 9999 FEW010 FEW050 BKN100 06/01 A3037 RMK SLP282 T00610006 10061 20039 51007
RJOI 212255Z 30005KT 9999 FEW010 BKN100 BKN150 04/00 A3037 RMK SLP283 T00440000
RJOI 212155Z 31007KT 9999 FEW030 BKN120 BKN170 04/00 A3037 RMK SLP284 T00440000
RJOI 212055Z 31006KT 9999 FEW030 BKN130 BKN170 04/00 A3035 RMK SLP275 T00390000 55007
RJOI 211955Z 31006KT 9999 FEW030 SCT130 BKN160 04/00 A3034 RMK SLP274 T00390000
RJOI 211855Z 31006KT 9999 FEW030 SCT150 BKN180 04/00 A3035 RMK SLP276 T00440000
RJOI 211755Z 30007KT 9999 FEW030 BKN160 04/00 A3037 RMK SLP283 T00440000 10067 20039 54000
RJOI 211655Z 32004KT 9999 FEW030 BKN180 04/00 A3036 RMK SLP282 T00440000
RJOI 211555Z 31004KT 9999 FEW030 SCT200 04/00 A3037 RMK SLP283 T00440000
RJOI 211455Z 30007KT 9999 FEW030 SCT200 04/00 A3037 RMK SLP282 T00440000 401280039 58003
RJOI 211355Z 30006KT 9999 FEW030 05/01 A3038 RMK SLP286 T00500006
RJOI 211255Z 31009KT 9999 FEW030 07/01 A3039 RMK SLP289 T00670006
RJOI 211155Z 32005KT 9999 FEW030 07/00 A3038 RMK SLP287 T00670000 10122 20067 51017
RJOI 211055Z 31006KT 9999 FEW030 07/01 A3038 RMK SLP286 T00720006
RJOI 210955Z 29005KT 9999 FEW030 08/01 A3035 RMK SLP277 T00830006
RJOI 210855Z 17007KT 9999 FEW030 09/00 A3033 RMK SLP270 T00940000 51010
RJOI 210755Z 06004KT 9999 FEW030 11/M02 A3032 RMK SLP268 T01111022
RJOI 210655Z 06007KT 9999 FEW030 12/M02 A3031 RMK SLP265 T01171017
RJOI 210555Z 06009KT 9999 FEW030 12/M02 A3030 RMK SLP260 T01221017 10128 20078 56020
RJOI 210455Z 09007KT 9999 FEW030 12/M01 A3030 RMK SLP261 T01221011
RJOI 210355Z 06007KT 9999 SCT035 12/M01 A3032 RMK SLP267 T01171011
RJOI 210255Z 09006KT 9999 SCT030 SCT050 11/M02 A3035 RMK SLP277 T01111017 50007
RJOI 210155Z 04007KT 9999 SCT030 11/M02 A3037 RMK SLP285 T01061022
RJOI 210055Z 01007KT 9999 SCT030 SCT045 11/M03 A3036 RMK SLP280 T01061028
RJOI 202355Z 31005KT 9999 FEW015 SCT030 08/M01 A3034 RMK SLP273 T00781011 10078 20039 51034
RJOI 202255Z 30007KT 9999 SCT030 04/M01 A3031 RMK SLP263 T00441006
RJOI 202155Z 30005KT 9999 FEW030 SCT050 04/M01 A3027 RMK SLP251 T00441006
RJOI 202055Z 31006KT 9999 FEW030 SCT050 05/M01 A3023 RMK SLP237 T00501006 53010
RJOI 201955Z 31006KT 9999 FEW030 BKN050 05/00 A3021 RMK SLP228 T00500000
RJOI 201855Z 28005KT 9999 FEW030 BKN050 06/00 A3020 RMK SLP225 T00560000
RJOI 201755Z 30004KT 9999 FEW030 BKN045 06/01 A3020 RMK SLP227 T00610006 10078 20044 5////
RJOI 201655Z 29003KT 9999 FEW030 BKN050 06/01 A3020 RMK SLP226 T00560006
RJOI 201606Z 32004KT 9999 FEW030 FEW050 05/00 A3020 RMK SLP225 FIRST T00500000
RJOI 201355Z 31003KT 9999 FEW030 BKN055 06/M01 A3018 RMK SLP219 LAST T00611006
RJOI 201255Z 30003KT 9999 FEW030 SCT050 07/M01 A3017 RMK SLP214 T00671006
RJOI 201155Z 24005KT 9999 FEW030 07/M01 A3016 RMK SLP214 T00671006 10111 20067 51020
RJOI 201055Z 26005KT 9999 FEW030 SCT055 08/M01 A3015 RMK SLP209 T00831006
RJOI 200955Z 26005KT 9999 FEW030 BKN060 09/M01 A3014 RMK SLP204 T00891006
RJOI 200855Z 26010KT 9999 FEW030 BKN060 09/M01 A3011 RMK SLP196 T00941006 51014
RJOI 200755Z 27009KT 9999 FEW030 BKN060 10/M02 A3009 RMK SLP190 T01001017
RJOI 200655Z 27007KT 9999 FEW030 BKN060 11/M02 A3008 RMK SLP185 T01111017
RJOI 200555Z 29008KT 9999 FEW030 BKN060 11/M02 A3006 RMK SLP180 T01061022 10117 20094 56014
RJOI 200455Z 29007KT 9999 FEW030 BKN050 BKN065 11/M01 A3007 RMK SLP181 T01111011
RJOI 200355Z 27009KT 9999 FEW030 BKN060 11/M02 A3008 RMK SLP187 T01111017
RJOI 200255Z 25007KT 9999 FEW030 BKN060 12/M01 A3011 RMK SLP194 T01171011 58007
RJOI 200155Z 25011G23KT 9999 BKN055 12/M01 A3013 RMK SLP202 T01171006
RJOI 200055Z 26012G19KT 9999 FEW050 10/M01 A3013 RMK SLP204 T01001011